Time;durP1;ratioP1;P1;durP2;ratioP2;P2;SDS_P1;SDS_P2;PMS_P1;PMS_P2;Temp;Humidity;BMP_temperature;BMP_pressure;BME280_temperature;BME280_humidity;BME280_pressure;Samples;Min_cycle;Max_cycle;Signal;HPM_P1;HPM_P2
2023/06/26 00:00:19;;;;;;;7.88;4.57;;;;;;;;;;5098112;28;20030;-78
2023/06/26 00:02:44;;;;;;;5.40;4.70;;;;;;;;;;5096255;28;20441;-79
2023/06/26 00:05:10;;;;;;;7.65;4.88;;;;;;;;;;5096018;28;20024;-78
2023/06/26 00:07:36;;;;;;;4.78;4.28;;;;;;;;;;5095485;28;20028;-77
2023/06/26 00:10:02;;;;;;;8.15;4.45;;;;;;;;;;5095924;28;20113;-77
2023/06/26 00:12:28;;;;;;;6.15;4.45;;;;;;;;;;5095063;28;20039;-77
2023/06/26 00:14:53;;;;;;;7.95;4.68;;;;;;;;;;5095624;28;20032;-77
2023/06/26 00:17:18;;;;;;;6.13;4.43;;;;;;;;;;5095586;28;20024;-77
2023/06/26 00:19:44;;;;;;;5.53;4.50;;;;;;;;;;5095268;28;20256;-77
2023/06/26 00:22:09;;;;;;;6.37;4.47;;;;;;;;;;5095274;28;20060;-77
2023/06/26 00:24:34;;;;;;;5.77;4.57;;;;;;;;;;5095435;28;20268;-77
2023/06/26 00:26:59;;;;;;;5.30;4.50;;;;;;;;;;5094995;28;20264;-77
2023/06/26 00:29:25;;;;;;;9.13;4.68;;;;;;;;;;5093777;28;20260;-78
2023/06/26 00:31:50;;;;;;;6.03;4.80;;;;;;;;;;5095085;28;20173;-77
2023/06/26 00:34:15;;;;;;;7.20;4.82;;;;;;;;;;5095037;28;20248;-77
2023/06/26 00:36:43;;;;;;;6.50;4.72;;;;;;;;;;5095310;28;20032;-77
2023/06/26 00:39:09;;;;;;;5.50;4.20;;;;;;;;;;5095313;28;20019;-77
2023/06/26 00:41:34;;;;;;;8.85;4.65;;;;;;;;;;5095225;28;20020;-76
2023/06/26 00:43:59;;;;;;;5.37;4.57;;;;;;;;;;5093816;28;20118;-77
2023/06/26 00:46:24;;;;;;;6.90;4.47;;;;;;;;;;5093535;28;20296;-77
2023/06/26 00:48:50;;;;;;;6.15;4.70;;;;;;;;;;5095228;28;20725;-77
2023/06/26 00:51:15;;;;;;;7.47;4.72;;;;;;;;;;5096407;28;20031;-77
2023/06/26 00:53:42;;;;;;;5.53;4.47;;;;;;;;;;5095181;28;20364;-77
2023/06/26 00:56:07;;;;;;;5.32;4.78;;;;;;;;;;5093950;28;20069;-78
2023/06/26 00:58:33;;;;;;;6.30;4.70;;;;;;;;;;5093894;28;20020;-77
2023/06/26 01:00:58;;;;;;;8.43;4.83;;;;;;;;;;5093867;28;20020;-79
2023/06/26 01:03:24;;;;;;;8.32;4.97;;;;;;;;;;5094138;28;20260;-78
2023/06/26 01:05:52;;;;;;;8.20;4.72;;;;;;;;;;5094496;28;20424;-77
2023/06/26 01:08:18;;;;;;;6.82;4.78;;;;;;;;;;5093710;28;20118;-77
2023/06/26 01:10:44;;;;;;;8.23;5.03;;;;;;;;;;5095391;28;20420;-77
2023/06/26 01:13:11;;;;;;;7.93;5.05;;;;;;;;;;5095146;28;20034;-77
2023/06/26 01:15:37;;;;;;;6.82;4.82;;;;;;;;;;5095143;28;20032;-78
2023/06/26 01:18:03;;;;;;;7.70;4.67;;;;;;;;;;5095131;28;20074;-78
2023/06/26 01:20:35;;;;;;;6.13;4.55;;;;;;;;;;5095170;28;20248;-78
2023/06/26 01:23:22;;;;;;;5.63;4.50;;;;;;;;;;5095020;28;20020;-78
2023/06/26 01:26:09;;;;;;;9.27;4.68;;;;;;;;;;5094653;28;20081;-78
2023/06/26 01:28:39;;;;;;;6.05;4.85;;;;;;;;;;5094093;28;20475;-77
2023/06/26 01:31:06;;;;;;;6.80;4.63;;;;;;;;;;5093367;28;20054;-78
2023/06/26 01:33:32;;;;;;;6.72;4.90;;;;;;;;;;5093626;28;20035;-77
2023/06/26 01:35:57;;;;;;;6.28;5.10;;;;;;;;;;5093793;28;20391;-77
2023/06/26 01:38:23;;;;;;;6.65;4.60;;;;;;;;;;5093628;28;20030;-77
2023/06/26 01:40:50;;;;;;;7.20;5.10;;;;;;;;;;5092265;28;20013;-78
2023/06/26 01:43:24;;;;;;;7.78;4.95;;;;;;;;;;5093704;28;20106;-77
2023/06/26 01:45:53;;;;;;;5.88;4.70;;;;;;;;;;5094111;28;20028;-78
2023/06/26 01:48:23;;;;;;;9.82;5.30;;;;;;;;;;5093639;28;20016;-78
2023/06/26 01:50:50;;;;;;;7.03;4.80;;;;;;;;;;5092169;28;20109;-78
2023/06/26 01:53:19;;;;;;;5.85;4.85;;;;;;;;;;5093879;28;20020;-78
2023/06/26 01:55:52;;;;;;;7.25;5.10;;;;;;;;;;5093531;28;20028;-77
2023/06/26 01:58:22;;;;;;;7.47;4.97;;;;;;;;;;5093854;28;20077;-77
2023/06/26 02:00:47;;;;;;;7.65;4.50;;;;;;;;;;5093984;28;20441;-78
2023/06/26 02:03:12;;;;;;;6.13;5.03;;;;;;;;;;5093559;28;20024;-78
2023/06/26 02:05:38;;;;;;;6.30;4.97;;;;;;;;;;5092294;28;20070;-78
2023/06/26 02:08:04;;;;;;;6.05;4.70;;;;;;;;;;5093416;28;20275;-78
2023/06/26 02:10:29;;;;;;;7.90;4.80;;;;;;;;;;5093493;28;20028;-77
2023/06/26 02:12:55;;;;;;;6.68;4.80;;;;;;;;;;5093479;28;20567;-77
2023/06/26 02:15:20;;;;;;;6.20;5.10;;;;;;;;;;5092105;28;20483;-77
2023/06/26 02:17:48;;;;;;;8.95;5.03;;;;;;;;;;5092770;28;20023;-77
2023/06/26 02:20:13;;;;;;;10.90;4.90;;;;;;;;;;5093151;28;20016;-77
2023/06/26 02:22:38;;;;;;;7.03;4.63;;;;;;;;;;5092861;28;20036;-77
2023/06/26 02:25:04;;;;;;;7.77;4.73;;;;;;;;;;5091815;28;20059;-77
2023/06/26 02:27:29;;;;;;;7.38;5.00;;;;;;;;;;5093208;28;20292;-77
2023/06/26 02:29:55;;;;;;;6.30;4.83;;;;;;;;;;5094076;28;20371;-77
2023/06/26 02:32:20;;;;;;;9.48;4.72;;;;;;;;;;5094596;28;20324;-77
2023/06/26 02:34:45;;;;;;;8.13;4.97;;;;;;;;;;5094696;28;20069;-77
2023/06/26 02:37:10;;;;;;;6.38;4.85;;;;;;;;;;5097479;28;20264;-77
2023/06/26 02:39:36;;;;;;;11.60;5.27;;;;;;;;;;5097691;28;20107;-78
2023/06/26 02:42:01;;;;;;;7.10;4.90;;;;;;;;;;5098257;28;20291;-77
2023/06/26 02:44:27;;;;;;;6.38;4.45;;;;;;;;;;5097661;28;20066;-77
2023/06/26 02:46:52;;;;;;;6.87;4.73;;;;;;;;;;5098046;28;20038;-77
2023/06/26 02:49:17;;;;;;;6.30;4.90;;;;;;;;;;5098078;28;20264;-77
2023/06/26 02:51:42;;;;;;;6.70;4.70;;;;;;;;;;5098080;28;20280;-77
2023/06/26 02:54:07;;;;;;;6.50;5.23;;;;;;;;;;5096715;28;20265;-77
2023/06/26 02:56:33;;;;;;;8.70;5.10;;;;;;;;;;5098058;28;20256;-77
2023/06/26 02:58:58;;;;;;;8.15;4.88;;;;;;;;;;5097837;28;20252;-77
2023/06/26 03:01:24;;;;;;;6.00;5.20;;;;;;;;;;5097651;28;20020;-77
2023/06/26 03:03:49;;;;;;;8.07;5.40;;;;;;;;;;5095272;28;20023;-77
2023/06/26 03:06:15;;;;;;;6.57;4.97;;;;;;;;;;5098320;28;20473;-77
2023/06/26 03:08:41;;;;;;;9.75;4.78;;;;;;;;;;5098556;28;20702;-77
2023/06/26 03:11:09;;;;;;;7.68;5.15;;;;;;;;;;5097886;28;20510;-77
2023/06/26 03:13:35;;;;;;;7.75;5.55;;;;;;;;;;5096534;28;20078;-77
2023/06/26 03:16:01;;;;;;;7.55;5.20;;;;;;;;;;5096981;28;20024;-77
2023/06/26 03:18:27;;;;;;;8.10;5.38;;;;;;;;;;5098045;28;20490;-78
2023/06/26 03:20:54;;;;;;;7.60;5.13;;;;;;;;;;5098288;28;20029;-77
2023/06/26 03:23:20;;;;;;;6.38;5.05;;;;;;;;;;5097777;28;20024;-78
2023/06/26 03:25:45;;;;;;;8.50;5.15;;;;;;;;;;5097593;28;20410;-78
2023/06/26 03:28:10;;;;;;;6.28;5.20;;;;;;;;;;5097698;28;20526;-78
2023/06/26 03:30:35;;;;;;;7.38;5.18;;;;;;;;;;5097610;28;20108;-78
2023/06/26 03:33:01;;;;;;;7.67;5.17;;;;;;;;;;5098259;28;20032;-78
2023/06/26 03:35:26;;;;;;;8.00;4.40;;;;;;;;;;5097151;28;20268;-78
2023/06/26 03:37:51;;;;;;;7.07;5.23;;;;;;;;;;5097315;28;20252;-78
2023/06/26 03:40:16;;;;;;;10.13;4.97;;;;;;;;;;5097595;28;20252;-77
2023/06/26 03:42:42;;;;;;;8.70;4.83;;;;;;;;;;5097400;28;20349;-78
2023/06/26 03:45:08;;;;;;;12.13;5.22;;;;;;;;;;5097165;28;20295;-78
2023/06/26 03:47:33;;;;;;;9.57;5.65;;;;;;;;;;5096569;28;20474;-78
2023/06/26 03:49:58;;;;;;;6.90;5.15;;;;;;;;;;5097487;28;20084;-77
2023/06/26 03:52:23;;;;;;;6.43;4.78;;;;;;;;;;5097505;28;20098;-77
2023/06/26 03:54:49;;;;;;;8.43;5.45;;;;;;;;;;5097210;28;20031;-78
2023/06/26 03:57:14;;;;;;;8.52;5.07;;;;;;;;;;5095947;28;20058;-78
2023/06/26 03:59:39;;;;;;;6.65;4.80;;;;;;;;;;5097112;28;20016;-78
2023/06/26 04:02:04;;;;;;;5.90;4.80;;;;;;;;;;5097251;28;20041;-77
2023/06/26 04:04:30;;;;;;;9.65;5.03;;;;;;;;;;5095979;28;20020;-78
2023/06/26 04:06:55;;;;;;;8.90;5.10;;;;;;;;;;5096851;28;20047;-78
2023/06/26 04:09:20;;;;;;;7.55;5.00;;;;;;;;;;5097282;28;20550;-77
2023/06/26 04:11:46;;;;;;;6.75;5.32;;;;;;;;;;5097124;28;20064;-78
2023/06/26 04:14:11;;;;;;;12.10;5.47;;;;;;;;;;5096667;28;20486;-78
2023/06/26 04:16:36;;;;;;;7.05;4.80;;;;;;;;;;5096919;28;20827;-78
2023/06/26 04:19:02;;;;;;;8.17;4.83;;;;;;;;;;5095439;28;20425;-77
2023/06/26 04:21:27;;;;;;;10.23;5.20;;;;;;;;;;5096097;28;20620;-78
2023/06/26 04:23:53;;;;;;;6.63;5.00;;;;;;;;;;5096063;28;20020;-78
2023/06/26 04:26:18;;;;;;;10.27;5.00;;;;;;;;;;5096257;28;20248;-78
2023/06/26 04:28:43;;;;;;;10.57;5.13;;;;;;;;;;5095946;28;20027;-78
2023/06/26 04:31:09;;;;;;;7.47;4.87;;;;;;;;;;5096397;28;20046;-78
2023/06/26 04:33:36;;;;;;;13.00;5.20;;;;;;;;;;5096937;28;20276;-77
2023/06/26 04:36:03;;;;;;;9.90;5.03;;;;;;;;;;5096164;28;20019;-78
2023/06/26 04:38:29;;;;;;;10.65;4.68;;;;;;;;;;5095794;28;20039;-77
2023/06/26 04:40:54;;;;;;;7.43;4.93;;;;;;;;;;5095043;28;20020;-77
2023/06/26 04:43:19;;;;;;;8.93;4.80;;;;;;;;;;5096433;28;20028;-77
2023/06/26 04:45:44;;;;;;;7.97;5.10;;;;;;;;;;5095118;28;20253;-77
2023/06/26 04:48:10;;;;;;;8.68;4.82;;;;;;;;;;5096203;28;20302;-77
2023/06/26 04:50:35;;;;;;;12.63;5.00;;;;;;;;;;5094209;28;20398;-79
2023/06/26 04:53:00;;;;;;;6.60;4.80;;;;;;;;;;5095240;28;20330;-77
2023/06/26 04:55:26;;;;;;;8.52;4.72;;;;;;;;;;5094573;28;20074;-79
2023/06/26 04:57:51;;;;;;;7.35;5.15;;;;;;;;;;5093819;28;20107;-77
2023/06/26 05:00:17;;;;;;;8.07;5.22;;;;;;;;;;5093787;28;20028;-77
2023/06/26 05:02:42;;;;;;;6.95;5.18;;;;;;;;;;5095657;28;20031;-78
2023/06/26 05:05:08;;;;;;;9.35;4.50;;;;;;;;;;5094366;28;20036;-77
2023/06/26 05:07:33;;;;;;;7.03;5.05;;;;;;;;;;5096050;28;20158;-77
2023/06/26 05:09:58;;;;;;;6.50;4.63;;;;;;;;;;5096277;28;20423;-77
2023/06/26 05:12:24;;;;;;;6.70;4.30;;;;;;;;;;5095699;28;20051;-77
2023/06/26 05:14:49;;;;;;;8.88;5.20;;;;;;;;;;5094668;28;20112;-77
2023/06/26 05:17:14;;;;;;;7.23;4.73;;;;;;;;;;5095615;28;20073;-78
2023/06/26 05:19:40;;;;;;;6.85;4.60;;;;;;;;;;5093400;28;20255;-77
2023/06/26 05:22:09;;;;;;;10.25;5.18;;;;;;;;;;5094866;28;20081;-77
2023/06/26 05:24:35;;;;;;;8.45;4.38;;;;;;;;;;5095034;28;20024;-76
2023/06/26 05:27:01;;;;;;;15.15;5.15;;;;;;;;;;5094475;28;20035;-77
2023/06/26 05:29:27;;;;;;;9.85;4.72;;;;;;;;;;5093116;28;20028;-77
2023/06/26 05:31:55;;;;;;;7.65;4.55;;;;;;;;;;5094436;28;20043;-77
2023/06/26 05:34:22;;;;;;;6.53;4.97;;;;;;;;;;5094547;28;20020;-77
2023/06/26 05:36:50;;;;;;;8.30;4.80;;;;;;;;;;5093613;28;20024;-77
2023/06/26 05:39:16;;;;;;;5.53;4.25;;;;;;;;;;5092634;28;20024;-77
2023/06/26 05:41:41;;;;;;;8.90;4.35;;;;;;;;;;5094098;28;20114;-78
2023/06/26 05:44:06;;;;;;;10.57;4.28;;;;;;;;;;5092841;28;20054;-78
2023/06/26 05:46:31;;;;;;;8.30;4.50;;;;;;;;;;5094215;28;20421;-77
2023/06/26 05:48:57;;;;;;;6.95;4.43;;;;;;;;;;5093698;28;20608;-77
2023/06/26 05:51:23;;;;;;;7.53;4.30;;;;;;;;;;5092919;28;20020;-76
2023/06/26 05:53:49;;;;;;;10.13;4.20;;;;;;;;;;5092940;28;20077;-76
2023/06/26 05:56:15;;;;;;;7.35;4.50;;;;;;;;;;5092364;28;20039;-79
2023/06/26 05:58:41;;;;;;;7.70;4.85;;;;;;;;;;5093426;28;20024;-77
2023/06/26 06:01:06;;;;;;;7.30;4.47;;;;;;;;;;5092789;28;20023;-77
2023/06/26 06:03:32;;;;;;;6.77;4.50;;;;;;;;;;5094999;28;20024;-78
2023/06/26 06:05:57;;;;;;;6.63;4.70;;;;;;;;;;5096108;28;20253;-78
2023/06/26 06:08:22;;;;;;;5.57;4.18;;;;;;;;;;5095862;28;20302;-78
2023/06/26 06:10:47;;;;;;;5.68;4.28;;;;;;;;;;5095626;28;20032;-78
2023/06/26 06:13:13;;;;;;;8.43;4.70;;;;;;;;;;5099690;28;20039;-78
2023/06/26 06:15:38;;;;;;;5.50;3.83;;;;;;;;;;5097962;28;20260;-78
2023/06/26 06:18:03;;;;;;;5.13;3.80;;;;;;;;;;5099730;28;20321;-78
2023/06/26 06:20:28;;;;;;;6.03;3.78;;;;;;;;;;5099718;28;20252;-78
2023/06/26 06:22:54;;;;;;;6.03;3.60;;;;;;;;;;5100215;28;20019;-79
2023/06/26 06:25:19;;;;;;;6.47;4.00;;;;;;;;;;5099254;28;20735;-78
2023/06/26 06:27:44;;;;;;;5.60;3.70;;;;;;;;;;5099152;28;20116;-78
2023/06/26 06:30:10;;;;;;;6.32;3.75;;;;;;;;;;5099264;28;20303;-79
2023/06/26 06:32:35;;;;;;;5.43;3.78;;;;;;;;;;5098450;28;20189;-78
2023/06/26 06:35:08;;;;;;;5.93;3.60;;;;;;;;;;5099437;28;20461;-78
2023/06/26 06:37:33;;;;;;;5.37;3.70;;;;;;;;;;5098176;28;20020;-78
2023/06/26 06:39:59;;;;;;;6.33;3.40;;;;;;;;;;5099495;28;20027;-78
2023/06/26 06:42:24;;;;;;;6.80;3.67;;;;;;;;;;5099562;28;20351;-77
2023/06/26 06:44:49;;;;;;;6.83;3.77;;;;;;;;;;5099544;28;20081;-78
2023/06/26 06:47:14;;;;;;;5.37;3.70;;;;;;;;;;5098879;28;20257;-78
2023/06/26 06:49:40;;;;;;;5.83;4.43;;;;;;;;;;5098836;28;20253;-78
2023/06/26 06:52:05;;;;;;;5.40;3.70;;;;;;;;;;5097307;28;20330;-78
2023/06/26 06:54:30;;;;;;;4.72;3.50;;;;;;;;;;5098296;28;20253;-78
2023/06/26 06:56:56;;;;;;;6.47;3.67;;;;;;;;;;5098893;28;20107;-78
2023/06/26 06:59:21;;;;;;;7.73;3.90;;;;;;;;;;5098890;28;20288;-78
2023/06/26 07:01:46;;;;;;;7.50;3.80;;;;;;;;;;5098364;28;20263;-78
2023/06/26 07:04:11;;;;;;;4.70;3.40;;;;;;;;;;5098257;28;20256;-78
2023/06/26 07:06:36;;;;;;;5.30;3.67;;;;;;;;;;5098542;28;20268;-78
2023/06/26 07:09:02;;;;;;;8.27;3.90;;;;;;;;;;5099417;28;20268;-78
2023/06/26 07:11:27;;;;;;;6.30;3.60;;;;;;;;;;5098344;28;20276;-78
2023/06/26 07:13:53;;;;;;;6.27;3.63;;;;;;;;;;5097906;28;20035;-78
2023/06/26 07:16:18;;;;;;;9.23;3.57;;;;;;;;;;5098018;28;20256;-77
2023/06/26 07:18:43;;;;;;;7.75;3.45;;;;;;;;;;5097793;28;20263;-78
2023/06/26 07:21:08;;;;;;;5.10;3.35;;;;;;;;;;5096901;28;20475;-78
2023/06/26 07:23:34;;;;;;;7.30;3.50;;;;;;;;;;5096776;28;20062;-78
2023/06/26 07:25:59;;;;;;;5.33;3.70;;;;;;;;;;5098277;28;20260;-77
2023/06/26 07:28:24;;;;;;;4.90;3.17;;;;;;;;;;5097853;28;20787;-78
2023/06/26 07:30:49;;;;;;;5.10;3.93;;;;;;;;;;5097180;28;20020;-78
2023/06/26 07:33:15;;;;;;;4.93;3.93;;;;;;;;;;5098660;28;20824;-78
2023/06/26 07:35:40;;;;;;;6.27;4.03;;;;;;;;;;5098269;28;20743;-78
2023/06/26 07:38:05;;;;;;;6.03;3.63;;;;;;;;;;5098161;28;20286;-78
2023/06/26 07:40:30;;;;;;;4.23;3.60;;;;;;;;;;5098479;28;20016;-78
2023/06/26 07:42:58;;;;;;;5.20;3.75;;;;;;;;;;5097997;28;20261;-78
2023/06/26 07:45:23;;;;;;;4.60;3.60;;;;;;;;;;5097839;28;20024;-78
2023/06/26 07:47:48;;;;;;;8.77;3.93;;;;;;;;;;5097793;28;20060;-77
2023/06/26 07:50:19;;;;;;;4.30;3.55;;;;;;;;;;5098120;28;20256;-78
2023/06/26 07:52:44;;;;;;;5.63;3.67;;;;;;;;;;5097538;28;20091;-78
2023/06/26 07:55:09;;;;;;;6.72;3.67;;;;;;;;;;5097359;28;20038;-78
2023/06/26 07:57:35;;;;;;;6.25;3.92;;;;;;;;;;5095958;28;20394;-78
2023/06/26 08:00:00;;;;;;;4.88;3.80;;;;;;;;;;5098148;28;20028;-78
2023/06/26 08:02:25;;;;;;;5.03;3.67;;;;;;;;;;5097954;28;20054;-78
2023/06/26 08:04:50;;;;;;;5.50;3.73;;;;;;;;;;5097916;28;20204;-78
2023/06/26 08:07:16;;;;;;;5.77;3.80;;;;;;;;;;5096156;28;20268;-78
2023/06/26 08:09:41;;;;;;;5.70;3.93;;;;;;;;;;5097229;28;20249;-78
2023/06/26 08:12:07;;;;;;;5.63;3.80;;;;;;;;;;5097060;28;20302;-78
2023/06/26 08:14:32;;;;;;;4.65;3.97;;;;;;;;;;5097112;28;20024;-78
2023/06/26 08:16:59;;;;;;;4.90;3.87;;;;;;;;;;5096784;28;20096;-78
2023/06/26 08:19:24;;;;;;;5.25;3.85;;;;;;;;;;5097582;28;20775;-78
2023/06/26 08:21:50;;;;;;;6.95;4.00;;;;;;;;;;5096591;28;20097;-78
2023/06/26 08:24:17;;;;;;;5.17;3.80;;;;;;;;;;5096701;28;20016;-78
2023/06/26 08:26:42;;;;;;;4.93;3.60;;;;;;;;;;5096737;28;20031;-77
2023/06/26 08:29:08;;;;;;;4.93;3.73;;;;;;;;;;5095293;28;20028;-78
2023/06/26 08:31:37;;;;;;;6.35;4.10;;;;;;;;;;5096345;28;20032;-78
2023/06/26 08:34:03;;;;;;;4.00;3.30;;;;;;;;;;5096069;28;20032;-77
2023/06/26 08:36:28;;;;;;;5.50;4.03;;;;;;;;;;5095841;28;20024;-78
2023/06/26 08:38:54;;;;;;;4.82;3.80;;;;;;;;;;5096065;28;20031;-78
2023/06/26 08:41:19;;;;;;;4.95;3.80;;;;;;;;;;5096992;28;20070;-78
2023/06/26 08:43:44;;;;;;;5.87;3.80;;;;;;;;;;5096529;28;20028;-77
2023/06/26 08:46:09;;;;;;;3.80;3.20;;;;;;;;;;5096176;28;20351;-78
2023/06/26 08:48:36;;;;;;;5.57;4.07;;;;;;;;;;5096413;28;20762;-78
2023/06/26 08:51:11;;;;;;;4.78;3.55;;;;;;;;;;5094703;28;20283;-78
2023/06/26 08:53:50;;;;;;;5.07;3.72;;;;;;;;;;5096545;28;20023;-78
2023/06/26 08:56:17;;;;;;;7.50;3.70;;;;;;;;;;5096625;28;20028;-78
2023/06/26 08:58:44;;;;;;;4.03;3.58;;;;;;;;;;5096915;28;20440;-78
2023/06/26 09:01:10;;;;;;;6.00;4.05;;;;;;;;;;5096355;28;20020;-78
2023/06/26 09:03:35;;;;;;;7.50;4.40;;;;;;;;;;5096325;28;20032;-78
2023/06/26 09:06:00;;;;;;;5.32;3.70;;;;;;;;;;5094738;28;20028;-78
2023/06/26 09:08:26;;;;;;;5.30;3.67;;;;;;;;;;5095823;28;20057;-78
2023/06/26 09:10:51;;;;;;;6.28;3.80;;;;;;;;;;5096252;28;20280;-78
2023/06/26 09:13:18;;;;;;;5.38;3.70;;;;;;;;;;5096329;28;20048;-78
2023/06/26 09:15:45;;;;;;;7.53;4.03;;;;;;;;;;5096161;28;20080;-78
2023/06/26 09:18:11;;;;;;;4.57;3.58;;;;;;;;;;5096624;28;20027;-78
2023/06/26 09:20:36;;;;;;;4.50;3.92;;;;;;;;;;5096583;28;20024;-78
2023/06/26 09:23:05;;;;;;;4.95;3.47;;;;;;;;;;5096074;28;20036;-78
2023/06/26 09:25:30;;;;;;;4.90;3.70;;;;;;;;;;5096162;28;20027;-76
2023/06/26 09:27:56;;;;;;;6.22;4.28;;;;;;;;;;5094715;28;20067;-79
2023/06/26 09:30:21;;;;;;;5.28;3.58;;;;;;;;;;5092089;28;20039;-79
2023/06/26 09:32:47;;;;;;;4.85;4.10;;;;;;;;;;5093536;28;20165;-77
2023/06/26 09:35:13;;;;;;;4.63;3.83;;;;;;;;;;5092325;28;20023;-77
2023/06/26 09:37:38;;;;;;;5.97;3.97;;;;;;;;;;5093759;28;20103;-77
2023/06/26 09:40:07;;;;;;;4.90;3.80;;;;;;;;;;5093531;28;20032;-76
2023/06/26 09:42:33;;;;;;;4.68;3.72;;;;;;;;;;5093827;28;20027;-77
2023/06/26 09:44:58;;;;;;;4.40;3.83;;;;;;;;;;5092963;28;20368;-77
2023/06/26 09:47:24;;;;;;;8.20;3.80;;;;;;;;;;5092896;28;20059;-77
2023/06/26 09:49:50;;;;;;;4.28;3.60;;;;;;;;;;5093135;28;20305;-77
2023/06/26 09:52:16;;;;;;;5.50;3.90;;;;;;;;;;5093539;28;20482;-77
2023/06/26 09:54:43;;;;;;;6.20;4.25;;;;;;;;;;5093543;28;20028;-77
2023/06/26 09:57:09;;;;;;;5.50;4.28;;;;;;;;;;5091791;28;20027;-78
2023/06/26 09:59:35;;;;;;;5.68;4.13;;;;;;;;;;5093624;28;20028;-78
2023/06/26 10:02:01;;;;;;;5.93;3.85;;;;;;;;;;5093489;28;20490;-78
2023/06/26 10:04:26;;;;;;;5.05;3.58;;;;;;;;;;5093113;28;20032;-77
2023/06/26 10:06:55;;;;;;;5.57;4.20;;;;;;;;;;5092943;28;20398;-77
2023/06/26 10:09:22;;;;;;;5.10;3.75;;;;;;;;;;5093426;28;20467;-77
2023/06/26 10:11:57;;;;;;;6.35;3.63;;;;;;;;;;5092851;28;20447;-77
2023/06/26 10:14:26;;;;;;;7.53;3.80;;;;;;;;;;5093142;28;20502;-78
2023/06/26 10:16:53;;;;;;;6.85;3.70;;;;;;;;;;5092795;28;20402;-77
2023/06/26 10:19:24;;;;;;;4.93;4.10;;;;;;;;;;5091634;28;20064;-77
2023/06/26 10:21:52;;;;;;;5.00;3.92;;;;;;;;;;5092939;28;20046;-78
2023/06/26 10:24:19;;;;;;;7.90;4.25;;;;;;;;;;5093059;28;20016;-77
2023/06/26 10:26:48;;;;;;;7.15;4.20;;;;;;;;;;5092776;28;20085;-77
2023/06/26 10:29:17;;;;;;;4.00;3.50;;;;;;;;;;5092763;28;20031;-77
2023/06/26 10:31:46;;;;;;;4.30;3.47;;;;;;;;;;5092646;28;20089;-77
2023/06/26 10:34:11;;;;;;;7.20;3.67;;;;;;;;;;5092850;28;20445;-78
2023/06/26 10:36:37;;;;;;;4.22;3.47;;;;;;;;;;5092601;28;20031;-77
2023/06/26 10:39:05;;;;;;;6.00;3.60;;;;;;;;;;5093110;28;20016;-78
2023/06/26 10:41:42;;;;;;;4.50;3.47;;;;;;;;;;5092869;28;20255;-77
2023/06/26 10:44:12;;;;;;;4.20;3.30;;;;;;;;;;5093093;28;20390;-78
2023/06/26 10:46:54;;;;;;;4.88;3.83;;;;;;;;;;5092967;28;20055;-78
2023/06/26 10:49:21;;;;;;;6.05;3.50;;;;;;;;;;5092897;28;20038;-78
2023/06/26 10:51:49;;;;;;;5.30;3.35;;;;;;;;;;5093172;28;20459;-78
2023/06/26 10:54:19;;;;;;;8.13;3.40;;;;;;;;;;5092852;28;20386;-77
2023/06/26 10:56:47;;;;;;;6.13;4.18;;;;;;;;;;5092112;28;20028;-78
2023/06/26 10:59:17;;;;;;;4.60;3.70;;;;;;;;;;5095002;28;20024;-78
2023/06/26 11:01:44;;;;;;;5.50;3.40;;;;;;;;;;5096424;28;20020;-77
2023/06/26 11:04:14;;;;;;;6.35;3.63;;;;;;;;;;5096268;28;20517;-77
2023/06/26 11:06:39;;;;;;;5.88;3.13;;;;;;;;;;5096585;28;20023;-78
2023/06/26 11:09:04;;;;;;;6.72;3.50;;;;;;;;;;5096080;28;20511;-78
2023/06/26 11:11:57;;;;;;;5.13;3.60;;;;;;;;;;5094606;28;20030;-77
2023/06/26 11:14:23;;;;;;;4.55;3.20;;;;;;;;;;5094716;28;20441;-77
2023/06/26 11:16:49;;;;;;;4.68;3.20;;;;;;;;;;5095877;28;20494;-77
2023/06/26 11:19:16;;;;;;;6.93;3.58;;;;;;;;;;5096267;28;20024;-78
2023/06/26 11:21:42;;;;;;;3.65;3.10;;;;;;;;;;5095976;28;20020;-77
2023/06/26 11:24:08;;;;;;;4.93;3.30;;;;;;;;;;5095802;28;20054;-77
2023/06/26 11:26:41;;;;;;;4.43;3.25;;;;;;;;;;5095647;28;20491;-77
2023/06/26 11:29:06;;;;;;;4.70;3.20;;;;;;;;;;5095590;28;20024;-77
2023/06/26 11:31:32;;;;;;;3.90;2.97;;;;;;;;;;5095432;28;20031;-78
2023/06/26 11:34:03;;;;;;;4.47;3.50;;;;;;;;;;5095787;28;20035;-77
2023/06/26 11:36:29;;;;;;;4.43;3.72;;;;;;;;;;5094006;28;20102;-77
2023/06/26 11:39:00;;;;;;;5.80;3.63;;;;;;;;;;5095419;28;20020;-77
2023/06/26 11:41:29;;;;;;;5.85;3.53;;;;;;;;;;5093891;28;20051;-77
2023/06/26 11:43:55;;;;;;;5.95;3.97;;;;;;;;;;5095341;28;20080;-77
2023/06/26 11:46:22;;;;;;;5.60;3.42;;;;;;;;;;5095245;28;20107;-77
2023/06/26 11:48:47;;;;;;;4.55;3.53;;;;;;;;;;5095073;28;20031;-77
2023/06/26 11:51:14;;;;;;;4.78;3.40;;;;;;;;;;5095300;28;20028;-77
2023/06/26 11:53:41;;;;;;;5.28;3.55;;;;;;;;;;5094929;28;20391;-77
2023/06/26 11:56:11;;;;;;;5.22;3.45;;;;;;;;;;5095022;28;20081;-77
2023/06/26 11:58:37;;;;;;;5.18;3.40;;;;;;;;;;5094945;28;20063;-77
2023/06/26 12:01:02;;;;;;;7.15;3.60;;;;;;;;;;5095168;28;20059;-77
2023/06/26 12:03:29;;;;;;;4.50;3.60;;;;;;;;;;5095082;28;20131;-76
2023/06/26 12:05:54;;;;;;;6.38;3.60;;;;;;;;;;5094754;28;20035;-77
2023/06/26 12:08:19;;;;;;;8.95;3.55;;;;;;;;;;5093820;28;20031;-77
2023/06/26 12:10:45;;;;;;;3.70;3.20;;;;;;;;;;5094585;28;20438;-77
2023/06/26 12:13:10;;;;;;;4.90;3.20;;;;;;;;;;5094585;28;20024;-77
2023/06/26 12:15:36;;;;;;;4.00;3.45;;;;;;;;;;5094624;28;20058;-77
2023/06/26 12:18:08;;;;;;;4.68;3.15;;;;;;;;;;5094865;28;20089;-77
2023/06/26 12:20:33;;;;;;;4.40;3.50;;;;;;;;;;5095017;28;20106;-78
2023/06/26 12:22:58;;;;;;;4.80;3.20;;;;;;;;;;5094464;28;20074;-76
2023/06/26 12:25:24;;;;;;;5.05;3.20;;;;;;;;;;5094292;28;20020;-77
2023/06/26 12:27:49;;;;;;;5.10;3.30;;;;;;;;;;5094372;28;20024;-77
2023/06/26 12:30:15;;;;;;;3.17;2.70;;;;;;;;;;5094109;28;20020;-77
2023/06/26 12:32:44;;;;;;;4.68;3.78;;;;;;;;;;5094255;28;20026;-77
2023/06/26 12:35:10;;;;;;;9.02;3.28;;;;;;;;;;5094277;28;20025;-77
2023/06/26 12:37:42;;;;;;;4.43;3.40;;;;;;;;;;5094215;28;20395;-77
2023/06/26 12:40:18;;;;;;;7.60;3.50;;;;;;;;;;5092800;28;20023;-77
2023/06/26 12:42:45;;;;;;;3.88;3.28;;;;;;;;;;5094160;28;20027;-77
2023/06/26 12:45:12;;;;;;;7.10;3.22;;;;;;;;;;5094069;28;20039;-77
2023/06/26 12:47:38;;;;;;;8.50;3.30;;;;;;;;;;5092697;28;20512;-77
2023/06/26 12:50:05;;;;;;;5.07;3.60;;;;;;;;;;5092627;28;20057;-77
2023/06/26 12:52:30;;;;;;;4.70;3.40;;;;;;;;;;5093921;28;20031;-77
2023/06/26 12:54:56;;;;;;;10.67;3.77;;;;;;;;;;5093895;28;20024;-77
2023/06/26 12:57:21;;;;;;;7.78;3.65;;;;;;;;;;5094184;28;20035;-77
2023/06/26 12:59:46;;;;;;;5.38;3.92;;;;;;;;;;5093844;28;20030;-77
2023/06/26 13:02:12;;;;;;;6.53;3.45;;;;;;;;;;5093948;28;20140;-77
2023/06/26 13:04:39;;;;;;;5.70;3.40;;;;;;;;;;5093770;28;20019;-77
2023/06/26 13:07:05;;;;;;;4.45;3.38;;;;;;;;;;5093716;28;20035;-77
2023/06/26 13:09:33;;;;;;;4.97;3.55;;;;;;;;;;5094173;28;20045;-77
2023/06/26 13:11:58;;;;;;;5.25;3.60;;;;;;;;;;5093621;28;20148;-77
2023/06/26 13:14:23;;;;;;;6.40;3.50;;;;;;;;;;5093864;28;20494;-77
2023/06/26 13:16:49;;;;;;;5.23;3.40;;;;;;;;;;5092189;28;20081;-78
2023/06/26 13:19:14;;;;;;;6.27;3.50;;;;;;;;;;5092299;28;20024;-78
2023/06/26 13:21:39;;;;;;;6.70;3.83;;;;;;;;;;5093804;28;20331;-77
2023/06/26 13:24:05;;;;;;;8.73;3.97;;;;;;;;;;5093599;28;20302;-78
2023/06/26 13:26:31;;;;;;;7.47;3.97;;;;;;;;;;5092192;28;20020;-77
2023/06/26 13:28:56;;;;;;;5.72;3.70;;;;;;;;;;5092093;28;20021;-77
2023/06/26 13:31:22;;;;;;;8.33;3.73;;;;;;;;;;5093204;28;20032;-78
2023/06/26 13:33:51;;;;;;;5.45;3.90;;;;;;;;;;5093505;28;20032;-78
2023/06/26 13:36:17;;;;;;;5.00;3.88;;;;;;;;;;5093386;28;20080;-78
2023/06/26 13:38:42;;;;;;;5.15;3.50;;;;;;;;;;5093179;28;20198;-78
2023/06/26 13:41:07;;;;;;;4.27;3.87;;;;;;;;;;5093469;28;20024;-78
2023/06/26 13:43:33;;;;;;;4.90;3.80;;;;;;;;;;5093289;28;20024;-78
2023/06/26 13:45:58;;;;;;;5.70;3.63;;;;;;;;;;5093454;28;20483;-77
2023/06/26 13:48:26;;;;;;;6.78;3.67;;;;;;;;;;5091943;28;20547;-78
2023/06/26 13:50:52;;;;;;;6.07;3.33;;;;;;;;;;5093314;28;20028;-78
2023/06/26 13:53:18;;;;;;;4.97;3.63;;;;;;;;;;5093456;28;20036;-78
2023/06/26 13:55:43;;;;;;;4.82;3.90;;;;;;;;;;5092039;28;20031;-78
2023/06/26 13:58:11;;;;;;;4.55;3.65;;;;;;;;;;5093559;28;20501;-78
2023/06/26 14:00:36;;;;;;;5.00;3.85;;;;;;;;;;5092765;28;20023;-78
2023/06/26 14:03:06;;;;;;;9.13;3.80;;;;;;;;;;5093578;28;20494;-78
2023/06/26 14:05:32;;;;;;;7.97;4.15;;;;;;;;;;5093371;28;20020;-77
2023/06/26 14:07:57;;;;;;;5.80;3.53;;;;;;;;;;5093229;28;20035;-78
2023/06/26 14:10:23;;;;;;;5.27;4.00;;;;;;;;;;5092907;28;20024;-77
2023/06/26 14:12:49;;;;;;;5.15;3.45;;;;;;;;;;5093164;28;20024;-78
2023/06/26 14:15:14;;;;;;;7.15;3.70;;;;;;;;;;5093500;28;20023;-78
2023/06/26 14:17:42;;;;;;;4.68;3.78;;;;;;;;;;5093585;28;20032;-77
2023/06/26 14:20:16;;;;;;;4.45;3.60;;;;;;;;;;5094398;28;20047;-77
2023/06/26 14:22:43;;;;;;;5.13;3.70;;;;;;;;;;5095067;28;20030;-78
2023/06/26 14:25:09;;;;;;;5.65;3.80;;;;;;;;;;5093332;28;20026;-77
2023/06/26 14:27:35;;;;;;;5.28;3.90;;;;;;;;;;5092973;28;20067;-77
2023/06/26 14:30:00;;;;;;;5.78;3.55;;;;;;;;;;5092856;28;20031;-78
2023/06/26 14:32:26;;;;;;;4.63;3.63;;;;;;;;;;5094611;28;20073;-78
2023/06/26 14:34:51;;;;;;;5.63;3.75;;;;;;;;;;5096926;28;20497;-78
2023/06/26 14:37:18;;;;;;;5.80;3.63;;;;;;;;;;5096625;28;20394;-78